San Francisco, California
Traffic Map
Current Weather Conditions
San Francisco, California
Broken Clouds
Broken Clouds
61°
Feels Like: 61°
Wind Chill: 61° Ceiling: 20000
Heat Index: 61° Visibility: 10mi
Dew Point: 45° Wind: 0mph
Humidity: 56% Direction: ° ()
Pressure: 30.31in Gusts: 0mph
Raw Report DataKSFO 070056Z 00000KT 10SM FEW150 BKN200 16/07 A3031 RMK AO2 SLP263 T01610072
Traffic Incident Summary
Active as of:
Severity:
Category:
InformationThere was an issue retrieving the traffic information for this location. Please try a different location or try again shortly.
Advertisements
Track Severe Weather on mobile